SBNF Informações do Aeroporto

Informações da Pista
Pista 7 Comprimento 5581 ft Largura 148 ft
Elevação 0 ft Limite 0 ft Heading 0
Pista 25 Comprimento 5581 ft Largura 148 ft
Elevação 0 ft Limite 0 ft Heading 0
Frequências do Aeroporto
Tipo APP Nome NAVEGANTES Frequência 119.5 MHZ
Tipo ATIS Nome ATIS Frequência 127.625 MHZ
Tipo TWR Nome NAVEGANTES Frequência 118.2 MHZ
Navaids do Aeroporto
Tipo NDB Nome Navegantes Frequência 235 KHZ
Informações meteorológicas do aeroporto e NOTAM
ADDS - METARS form results

(0743 UTC 17 February 2020)
Data provider http://aviationweather.gov/metar/data/
 
Forecast for: SBNF (NAVEGANTES , BR)
Text: TAF SBNF 170330Z 1706/1806 01007KT 9999 SCT030 TN25/1708Z TX30/1716Z RMK PAZ
Forecast period: 0600 UTC 17 February 2020 to 0600 UTC 18 February 2020
Forecast type: FROM: standard forecast or significant change
Winds: from the N (10 degrees) at 8 MPH (7 knots; 3.6 m/s)
Visibility: 6 or more miles 10+ km)
Ceiling: at least 12,000 feet AGL
Clouds: scattered clouds at 3000 feet AGL
Weather: no significant weather forecast for this period